Česky Dansk Deutsch English Español Suomi Français Magyar Italiano Nederlands norsk Polski Português svenska Türkçe

 

Het Weer

Kaoma (Zambia)

06:00, 31 december 2007 (GMT)

NWNNE
WE
SWSSE
Home            
Kaoma Kabompo Kasempa Mongu Senanga Zambezi Sesheke Katima Mulilo Choma Kasane Solwezi Mwinilunga Livingstone Victoria Falls Lusaka Internationalairport Lusaka City Airport Kabwe Binga Lubumbashi-Luano Kolwezi Ndola Kariba Hwange National Park

Om een weerknop op uw website of weblog te plaatsen, copieer onderstaande code en plak die in uw pagina. In het eerste vakje staat HTML-code, in het tweede vakje UBB-code.


Add to Google

Details

Wind speed:1 bf, 2 kn, 1.0 m/s, 2.3 miles/h, 3.7 km/h
Wind direction:N, 360°
Visibility:Greater than 10000 m, 10 km, 32800 ft, 6.2 miles
Clouds:Durchbrochene Bewölkung at 2000 ft, 610 m
Durchbrochene Bewölkung at 10000 ft, 3048 m
Temperature:20°C, 68°F
Dew-point:19°C, 66°F
Atmospheric pressure:1018 hPa, 763.6 mmHg, 30.06 inHg, 1.005 atm
Relative humidity:94.0 %
METAR:FLKO 310600Z 36002KT 9999 BKN020 BKN100 20/19 Q1018

Snelkoppelingen

Actuele weersinformatie van de hele wereld. Voeg locaties toe met het plus (+) symbool. Deze snelkoppelingen kunnen worden toegevoegd aan Google.

Lid van de Technetium groep

website free tracking
StatCounter NetStat W3C Validator

21-10-2020 12:45:31
astro.technetium.be money.technetium.be phote.technetium.be tafeltennistafel.technetium.be www.ligfiets.net